sensor_id;sensor_type;location;lat;lon;timestamp;pressure;altitude;pressure_sealevel;temperature;humidity
30598;BME280;17365;48.878;8.334;2023-10-19T00:00:45;98442.44;;;11.42;100.00
30598;BME280;17365;48.878;8.334;2023-10-19T00:03:13;98436.13;;;11.51;100.00
30598;BME280;17365;48.878;8.334;2023-10-19T00:05:38;98434.22;;;11.57;100.00
30598;BME280;17365;48.878;8.334;2023-10-19T00:08:05;98428.84;;;11.63;100.00
30598;BME280;17365;48.878;8.334;2023-10-19T00:10:39;98436.41;;;11.71;100.00
30598;BME280;17365;48.878;8.334;2023-10-19T00:13:07;98425.97;;;11.73;100.00
30598;BME280;17365;48.878;8.334;2023-10-19T00:15:34;98423.28;;;11.76;100.00
30598;BME280;17365;48.878;8.334;2023-10-19T00:18:02;98422.22;;;11.83;100.00
30598;BME280;17365;48.878;8.334;2023-10-19T00:20:46;98411.06;;;11.78;100.00
30598;BME280;17365;48.878;8.334;2023-10-19T00:23:21;98412.03;;;11.75;100.00
30598;BME280;17365;48.878;8.334;2023-10-19T00:26:05;98403.16;;;11.84;100.00
30598;BME280;17365;48.878;8.334;2023-10-19T00:28:33;98400.53;;;11.84;100.00
30598;BME280;17365;48.878;8.334;2023-10-19T00:31:00;98401.16;;;11.92;100.00
30598;BME280;17365;48.878;8.334;2023-10-19T00:33:32;98398.53;;;11.93;100.00
30598;BME280;17365;48.878;8.334;2023-10-19T00:35:59;98392.25;;;11.99;100.00
30598;BME280;17365;48.878;8.334;2023-10-19T00:38:24;98395.03;;;11.94;100.00
30598;BME280;17365;48.878;8.334;2023-10-19T00:40:53;98391.75;;;11.88;100.00
30598;BME280;17365;48.878;8.334;2023-10-19T00:43:31;98396.72;;;11.95;100.00
30598;BME280;17365;48.878;8.334;2023-10-19T00:46:09;98396.94;;;11.89;100.00
30598;BME280;17365;48.878;8.334;2023-10-19T00:48:47;98389.78;;;11.96;100.00
30598;BME280;17365;48.878;8.334;2023-10-19T00:51:14;98401.56;;;12.06;100.00
30598;BME280;17365;48.878;8.334;2023-10-19T00:54:04;98392.88;;;12.07;100.00
30598;BME280;17365;48.878;8.334;2023-10-19T00:56:33;98390.22;;;12.09;100.00
30598;BME280;17365;48.878;8.334;2023-10-19T00:58:59;98382.47;;;12.07;100.00
30598;BME280;17365;48.878;8.334;2023-10-19T01:01:26;98382.19;;;11.90;100.00
30598;BME280;17365;48.878;8.334;2023-10-19T01:03:53;98379.88;;;11.81;100.00
30598;BME280;17365;48.878;8.334;2023-10-19T01:06:21;98370.78;;;11.94;100.00
30598;BME280;17365;48.878;8.334;2023-10-19T01:08:47;98387.91;;;12.01;100.00
30598;BME280;17365;48.878;8.334;2023-10-19T01:11:12;98390.78;;;11.62;100.00
30598;BME280;17365;48.878;8.334;2023-10-19T01:13:40;98392.28;;;11.70;100.00
30598;BME280;17365;48.878;8.334;2023-10-19T01:16:11;98393.53;;;11.86;100.00
30598;BME280;17365;48.878;8.334;2023-10-19T01:18:40;98387.22;;;11.94;100.00
30598;BME280;17365;48.878;8.334;2023-10-19T01:21:08;98390.63;;;11.97;100.00
30598;BME280;17365;48.878;8.334;2023-10-19T01:23:33;98387.91;;;12.01;100.00
30598;BME280;17365;48.878;8.334;2023-10-19T01:26:00;98388.81;;;11.99;100.00
30598;BME280;17365;48.878;8.334;2023-10-19T01:28:29;98365.47;;;11.97;100.00
30598;BME280;17365;48.878;8.334;2023-10-19T01:31:08;98350.78;;;11.96;100.00
30598;BME280;17365;48.878;8.334;2023-10-19T01:33:33;98341.97;;;12.00;100.00
30598;BME280;17365;48.878;8.334;2023-10-19T01:36:01;98334.00;;;12.06;100.00
30598;BME280;17365;48.878;8.334;2023-10-19T01:38:35;98312.41;;;12.04;100.00
30598;BME280;17365;48.878;8.334;2023-10-19T01:41:01;98304.75;;;12.00;100.00
30598;BME280;17365;48.878;8.334;2023-10-19T01:43:30;98300.97;;;11.83;100.00
30598;BME280;17365;48.878;8.334;2023-10-19T01:45:56;98312.16;;;11.57;100.00
30598;BME280;17365;48.878;8.334;2023-10-19T01:48:22;98306.88;;;11.60;100.00
30598;BME280;17365;48.878;8.334;2023-10-19T01:50:53;98298.19;;;11.61;100.00
30598;BME280;17365;48.878;8.334;2023-10-19T01:53:18;98300.78;;;11.61;100.00
30598;BME280;17365;48.878;8.334;2023-10-19T01:55:44;98294.84;;;11.58;100.00
30598;BME280;17365;48.878;8.334;2023-10-19T01:58:09;98286.03;;;11.62;100.00
30598;BME280;17365;48.878;8.334;2023-10-19T02:00:35;98289.94;;;11.75;100.00
30598;BME280;17365;48.878;8.334;2023-10-19T02:03:05;98286.13;;;11.87;100.00
30598;BME280;17365;48.878;8.334;2023-10-19T02:05:32;98277.25;;;11.94;100.00
30598;BME280;17365;48.878;8.334;2023-10-19T02:08:04;98270.13;;;11.99;100.00
30598;BME280;17365;48.878;8.334;2023-10-19T02:10:32;98272.59;;;12.04;100.00
30598;BME280;17365;48.878;8.334;2023-10-19T02:12:57;98267.22;;;12.08;100.00
30598;BME280;17365;48.878;8.334;2023-10-19T02:15:23;98266.69;;;11.99;100.00
30598;BME280;17365;48.878;8.334;2023-10-19T02:17:48;98263.63;;;12.12;100.00
30598;BME280;17365;48.878;8.334;2023-10-19T02:20:14;98258.81;;;12.00;100.00
30598;BME280;17365;48.878;8.334;2023-10-19T02:22:42;98260.81;;;11.93;100.00
30598;BME280;17365;48.878;8.334;2023-10-19T02:25:07;98275.25;;;11.74;100.00
30598;BME280;17365;48.878;8.334;2023-10-19T02:27:35;98269.63;;;11.88;100.00
30598;BME280;17365;48.878;8.334;2023-10-19T02:30:00;98271.94;;;11.97;100.00
30598;BME280;17365;48.878;8.334;2023-10-19T02:32:26;98290.41;;;11.89;100.00
30598;BME280;17365;48.878;8.334;2023-10-19T02:34:51;98295.97;;;11.76;100.00
30598;BME280;17365;48.878;8.334;2023-10-19T02:37:16;98293.22;;;11.82;100.00
30598;BME280;17365;48.878;8.334;2023-10-19T02:39:42;98289.88;;;11.77;100.00
30598;BME280;17365;48.878;8.334;2023-10-19T02:42:08;98287.94;;;11.85;100.00
30598;BME280;17365;48.878;8.334;2023-10-19T02:44:33;98294.72;;;11.89;100.00
30598;BME280;17365;48.878;8.334;2023-10-19T02:46:59;98289.63;;;11.86;100.00
30598;BME280;17365;48.878;8.334;2023-10-19T02:49:24;98286.09;;;11.60;100.00
30598;BME280;17365;48.878;8.334;2023-10-19T02:51:51;98287.34;;;11.75;100.00
30598;BME280;17365;48.878;8.334;2023-10-19T02:54:17;98291.19;;;11.91;100.00
30598;BME280;17365;48.878;8.334;2023-10-19T02:56:55;98280.63;;;11.96;100.00
30598;BME280;17365;48.878;8.334;2023-10-19T02:59:22;98271.13;;;11.95;100.00
30598;BME280;17365;48.878;8.334;2023-10-19T03:01:48;98278.25;;;11.90;100.00
30598;BME280;17365;48.878;8.334;2023-10-19T03:04:13;98275.94;;;12.07;100.00
30598;BME280;17365;48.878;8.334;2023-10-19T03:06:40;98270.53;;;12.13;100.00
30598;BME280;17365;48.878;8.334;2023-10-19T03:09:06;98276.56;;;11.87;100.00
30598;BME280;17365;48.878;8.334;2023-10-19T03:11:50;98280.22;;;12.08;100.00
30598;BME280;17365;48.878;8.334;2023-10-19T03:14:19;98276.72;;;12.09;100.00
30598;BME280;17365;48.878;8.334;2023-10-19T03:16:44;98270.72;;;12.07;100.00
30598;BME280;17365;48.878;8.334;2023-10-19T03:19:10;98264.56;;;12.10;100.00
30598;BME280;17365;48.878;8.334;2023-10-19T03:21:36;98258.31;;;12.15;100.00
30598;BME280;17365;48.878;8.334;2023-10-19T03:24:08;98256.72;;;12.11;100.00
30598;BME280;17365;48.878;8.334;2023-10-19T03:26:52;98240.63;;;12.02;100.00
30598;BME280;17365;48.878;8.334;2023-10-19T03:29:19;98236.31;;;12.01;100.00
30598;BME280;17365;48.878;8.334;2023-10-19T03:31:47;98226.66;;;12.04;100.00
30598;BME280;17365;48.878;8.334;2023-10-19T03:34:12;98221.59;;;12.00;100.00
30598;BME280;17365;48.878;8.334;2023-10-19T03:36:38;98230.09;;;12.05;100.00
30598;BME280;17365;48.878;8.334;2023-10-19T03:39:03;98216.31;;;12.03;100.00
30598;BME280;17365;48.878;8.334;2023-10-19T03:41:46;98212.34;;;11.92;100.00
30598;BME280;17365;48.878;8.334;2023-10-19T03:44:14;98203.94;;;11.84;100.00
30598;BME280;17365;48.878;8.334;2023-10-19T03:46:48;98197.09;;;11.82;100.00
30598;BME280;17365;48.878;8.334;2023-10-19T03:49:22;98191.81;;;11.85;100.00
30598;BME280;17365;48.878;8.334;2023-10-19T03:51:48;98189.41;;;11.79;100.00
30598;BME280;17365;48.878;8.334;2023-10-19T03:54:27;98189.38;;;11.80;100.00
30598;BME280;17365;48.878;8.334;2023-10-19T03:56:53;98191.16;;;11.78;100.00
30598;BME280;17365;48.878;8.334;2023-10-19T03:59:20;98190.75;;;11.64;100.00
30598;BME280;17365;48.878;8.334;2023-10-19T04:01:46;98189.88;;;11.63;100.00
30598;BME280;17365;48.878;8.334;2023-10-19T04:04:11;98187.34;;;11.62;100.00
30598;BME280;17365;48.878;8.334;2023-10-19T04:06:37;98193.38;;;11.62;100.00
30598;BME280;17365;48.878;8.334;2023-10-19T04:09:03;98191.00;;;11.56;100.00
30598;BME280;17365;48.878;8.334;2023-10-19T04:11:30;98198.81;;;11.56;100.00
30598;BME280;17365;48.878;8.334;2023-10-19T04:14:13;98188.78;;;11.18;100.00
30598;BME280;17365;48.878;8.334;2023-10-19T04:16:40;98198.13;;;11.23;100.00
30598;BME280;17365;48.878;8.334;2023-10-19T04:19:08;98195.22;;;11.34;100.00
30598;BME280;17365;48.878;8.334;2023-10-19T04:21:34;98194.38;;;11.32;100.00
30598;BME280;17365;48.878;8.334;2023-10-19T04:24:03;98194.25;;;11.36;100.00
30598;BME280;17365;48.878;8.334;2023-10-19T04:26:29;98184.66;;;11.38;100.00
30598;BME280;17365;48.878;8.334;2023-10-19T04:29:01;98187.16;;;11.42;100.00
30598;BME280;17365;48.878;8.334;2023-10-19T04:31:34;98185.34;;;11.44;100.00
30598;BME280;17365;48.878;8.334;2023-10-19T04:34:02;98181.38;;;11.33;100.00
30598;BME280;17365;48.878;8.334;2023-10-19T04:36:32;98181.91;;;11.43;100.00
30598;BME280;17365;48.878;8.334;2023-10-19T04:38:58;98185.63;;;11.36;100.00
30598;BME280;17365;48.878;8.334;2023-10-19T04:41:24;98185.31;;;11.45;100.00
30598;BME280;17365;48.878;8.334;2023-10-19T04:43:52;98194.59;;;11.52;100.00
30598;BME280;17365;48.878;8.334;2023-10-19T04:46:17;98192.75;;;11.56;100.00
30598;BME280;17365;48.878;8.334;2023-10-19T04:48:44;98190.97;;;11.58;100.00
30598;BME280;17365;48.878;8.334;2023-10-19T04:51:09;98189.41;;;11.52;100.00
30598;BME280;17365;48.878;8.334;2023-10-19T04:53:35;98188.56;;;11.52;100.00
30598;BME280;17365;48.878;8.334;2023-10-19T04:56:00;98178.47;;;11.43;100.00
30598;BME280;17365;48.878;8.334;2023-10-19T04:58:26;98181.59;;;11.52;100.00
30598;BME280;17365;48.878;8.334;2023-10-19T05:00:52;98179.97;;;11.50;100.00
30598;BME280;17365;48.878;8.334;2023-10-19T05:03:18;98181.72;;;11.49;100.00
30598;BME280;17365;48.878;8.334;2023-10-19T05:05:44;98173.97;;;11.48;100.00
30598;BME280;17365;48.878;8.334;2023-10-19T05:08:09;98182.75;;;11.17;100.00
30598;BME280;17365;48.878;8.334;2023-10-19T05:10:34;98168.19;;;11.40;100.00
30598;BME280;17365;48.878;8.334;2023-10-19T05:12:59;98154.06;;;11.48;100.00
30598;BME280;17365;48.878;8.334;2023-10-19T05:15:24;98142.78;;;11.49;100.00
30598;BME280;17365;48.878;8.334;2023-10-19T05:17:49;98146.25;;;11.48;100.00
30598;BME280;17365;48.878;8.334;2023-10-19T05:20:15;98148.66;;;11.28;100.00
30598;BME280;17365;48.878;8.334;2023-10-19T05:22:40;98150.41;;;11.27;100.00
30598;BME280;17365;48.878;8.334;2023-10-19T05:25:05;98156.28;;;11.34;100.00
30598;BME280;17365;48.878;8.334;2023-10-19T05:27:32;98160.59;;;11.33;100.00
30598;BME280;17365;48.878;8.334;2023-10-19T05:29:58;98157.16;;;11.33;100.00
30598;BME280;17365;48.878;8.334;2023-10-19T05:32:23;98155.41;;;11.33;100.00
30598;BME280;17365;48.878;8.334;2023-10-19T05:34:49;98158.09;;;11.30;100.00
30598;BME280;17365;48.878;8.334;2023-10-19T05:37:14;98147.16;;;11.21;100.00
30598;BME280;17365;48.878;8.334;2023-10-19T05:39:41;98150.66;;;11.20;100.00
30598;BME280;17365;48.878;8.334;2023-10-19T05:42:07;98146.28;;;11.22;100.00
30598;BME280;17365;48.878;8.334;2023-10-19T05:44:32;98148.22;;;11.15;100.00
30598;BME280;17365;48.878;8.334;2023-10-19T05:46:57;98137.16;;;11.10;100.00
30598;BME280;17365;48.878;8.334;2023-10-19T05:49:23;98150.00;;;11.13;100.00
30598;BME280;17365;48.878;8.334;2023-10-19T05:51:51;98148.56;;;11.04;100.00
30598;BME280;17365;48.878;8.334;2023-10-19T05:54:16;98135.47;;;11.07;100.00
30598;BME280;17365;48.878;8.334;2023-10-19T05:56:42;98143.03;;;11.15;100.00
30598;BME280;17365;48.878;8.334;2023-10-19T05:59:07;98144.78;;;11.15;100.00
30598;BME280;17365;48.878;8.334;2023-10-19T06:01:33;98146.53;;;11.14;100.00
30598;BME280;17365;48.878;8.334;2023-10-19T06:03:58;98146.75;;;11.06;100.00
30598;BME280;17365;48.878;8.334;2023-10-19T06:06:24;98150.25;;;11.05;100.00
30598;BME280;17365;48.878;8.334;2023-10-19T06:08:49;98147.59;;;11.07;100.00
30598;BME280;17365;48.878;8.334;2023-10-19T06:11:19;98155.34;;;11.08;100.00
30598;BME280;17365;48.878;8.334;2023-10-19T06:13:44;98154.59;;;11.05;100.00
30598;BME280;17365;48.878;8.334;2023-10-19T06:16:09;98160.34;;;11.15;100.00
30598;BME280;17365;48.878;8.334;2023-10-19T06:18:34;98148.16;;;11.17;100.00
30598;BME280;17365;48.878;8.334;2023-10-19T06:20:59;98151.59;;;11.17;100.00
30598;BME280;17365;48.878;8.334;2023-10-19T06:23:24;98158.97;;;11.03;100.00
30598;BME280;17365;48.878;8.334;2023-10-19T06:25:50;98154.94;;;11.21;100.00
30598;BME280;17365;48.878;8.334;2023-10-19T06:28:16;98154.88;;;11.24;100.00
30598;BME280;17365;48.878;8.334;2023-10-19T06:30:41;98153.47;;;11.14;100.00
30598;BME280;17365;48.878;8.334;2023-10-19T06:33:07;98150.91;;;11.12;100.00
30598;BME280;17365;48.878;8.334;2023-10-19T06:35:33;98142.13;;;11.16;100.00
30598;BME280;17365;48.878;8.334;2023-10-19T06:38:02;98145.03;;;11.33;100.00
30598;BME280;17365;48.878;8.334;2023-10-19T06:40:29;98137.09;;;11.38;100.00
30598;BME280;17365;48.878;8.334;2023-10-19T06:42:54;98136.00;;;11.44;100.00
30598;BME280;17365;48.878;8.334;2023-10-19T06:45:23;98124.59;;;11.49;100.00
30598;BME280;17365;48.878;8.334;2023-10-19T06:47:50;98131.19;;;11.59;100.00
30598;BME280;17365;48.878;8.334;2023-10-19T06:50:16;98139.56;;;11.68;100.00
30598;BME280;17365;48.878;8.334;2023-10-19T06:52:42;98135.88;;;11.73;100.00
30598;BME280;17365;48.878;8.334;2023-10-19T06:55:09;98134.03;;;11.77;100.00
30598;BME280;17365;48.878;8.334;2023-10-19T06:57:51;98134.69;;;11.83;100.00
30598;BME280;17365;48.878;8.334;2023-10-19T07:00:18;98136.34;;;11.86;100.00
30598;BME280;17365;48.878;8.334;2023-10-19T07:02:45;98127.69;;;11.85;100.00
30598;BME280;17365;48.878;8.334;2023-10-19T07:05:11;98136.09;;;11.93;100.00
30598;BME280;17365;48.878;8.334;2023-10-19T07:07:42;98129.06;;;11.95;100.00
30598;BME280;17365;48.878;8.334;2023-10-19T07:10:08;98134.09;;;12.00;100.00
30598;BME280;17365;48.878;8.334;2023-10-19T07:12:35;98130.56;;;12.03;100.00
30598;BME280;17365;48.878;8.334;2023-10-19T07:15:00;98133.78;;;12.09;100.00
30598;BME280;17365;48.878;8.334;2023-10-19T07:17:28;98141.50;;;12.11;100.00
30598;BME280;17365;48.878;8.334;2023-10-19T07:19:53;98134.47;;;12.14;100.00
30598;BME280;17365;48.878;8.334;2023-10-19T07:22:18;98136.16;;;12.15;100.00
30598;BME280;17365;48.878;8.334;2023-10-19T07:24:47;98132.38;;;12.24;100.00
30598;BME280;17365;48.878;8.334;2023-10-19T07:27:13;98139.09;;;12.30;100.00
30598;BME280;17365;48.878;8.334;2023-10-19T07:29:43;98147.88;;;12.27;100.00
30598;BME280;17365;48.878;8.334;2023-10-19T07:32:08;98153.66;;;12.34;100.00
30598;BME280;17365;48.878;8.334;2023-10-19T07:34:36;98154.38;;;12.39;100.00
30598;BME280;17365;48.878;8.334;2023-10-19T07:37:01;98156.00;;;12.41;100.00
30598;BME280;17365;48.878;8.334;2023-10-19T07:39:28;98152.94;;;12.53;100.00
30598;BME280;17365;48.878;8.334;2023-10-19T07:41:55;98139.53;;;12.64;100.00
30598;BME280;17365;48.878;8.334;2023-10-19T07:44:20;98138.34;;;12.73;100.00
30598;BME280;17365;48.878;8.334;2023-10-19T07:46:45;98135.59;;;12.76;100.00
30598;BME280;17365;48.878;8.334;2023-10-19T07:49:10;98134.06;;;12.94;100.00
30598;BME280;17365;48.878;8.334;2023-10-19T07:51:40;98133.56;;;13.06;100.00
30598;BME280;17365;48.878;8.334;2023-10-19T07:54:06;98128.03;;;13.13;100.00
30598;BME280;17365;48.878;8.334;2023-10-19T07:56:32;98121.66;;;13.22;100.00
30598;BME280;17365;48.878;8.334;2023-10-19T07:58:59;98129.22;;;13.28;100.00
30598;BME280;17365;48.878;8.334;2023-10-19T08:01:24;98123.44;;;13.42;100.00
30598;BME280;17365;48.878;8.334;2023-10-19T08:03:49;98129.03;;;13.53;100.00
30598;BME280;17365;48.878;8.334;2023-10-19T08:06:14;98119.03;;;13.64;100.00
30598;BME280;17365;48.878;8.334;2023-10-19T08:08:40;98116.03;;;13.74;100.00
30598;BME280;17365;48.878;8.334;2023-10-19T08:11:07;98119.16;;;13.82;100.00
30598;BME280;17365;48.878;8.334;2023-10-19T08:13:33;98116.97;;;13.91;100.00
30598;BME280;17365;48.878;8.334;2023-10-19T08:15:58;98113.81;;;14.04;100.00
30598;BME280;17365;48.878;8.334;2023-10-19T08:18:23;98121.53;;;14.07;100.00
30598;BME280;17365;48.878;8.334;2023-10-19T08:20:49;98114.19;;;14.15;100.00
30598;BME280;17365;48.878;8.334;2023-10-19T08:23:15;98115.34;;;14.09;100.00
30598;BME280;17365;48.878;8.334;2023-10-19T08:25:48;98114.66;;;14.04;100.00
30598;BME280;17365;48.878;8.334;2023-10-19T08:28:15;98116.06;;;13.92;100.00
30598;BME280;17365;48.878;8.334;2023-10-19T08:30:41;98120.03;;;13.81;100.00
30598;BME280;17365;48.878;8.334;2023-10-19T08:33:06;98120.47;;;13.72;100.00
30598;BME280;17365;48.878;8.334;2023-10-19T08:35:34;98112.06;;;14.04;100.00
30598;BME280;17365;48.878;8.334;2023-10-19T08:38:00;98113.34;;;14.14;100.00
30598;BME280;17365;48.878;8.334;2023-10-19T08:40:29;98117.25;;;14.24;100.00
30598;BME280;17365;48.878;8.334;2023-10-19T08:42:54;98115.00;;;14.17;100.00
30598;BME280;17365;48.878;8.334;2023-10-19T08:45:20;98110.75;;;14.14;100.00
30598;BME280;17365;48.878;8.334;2023-10-19T08:47:48;98103.78;;;14.34;100.00
30598;BME280;17365;48.878;8.334;2023-10-19T08:50:18;98101.75;;;14.21;100.00
30598;BME280;17365;48.878;8.334;2023-10-19T08:52:48;98100.41;;;14.32;100.00
30598;BME280;17365;48.878;8.334;2023-10-19T08:55:17;98094.97;;;14.36;100.00
30598;BME280;17365;48.878;8.334;2023-10-19T08:57:42;98092.44;;;14.35;100.00
30598;BME280;17365;48.878;8.334;2023-10-19T09:00:08;98092.50;;;14.33;100.00
30598;BME280;17365;48.878;8.334;2023-10-19T09:02:34;98093.13;;;14.38;100.00
30598;BME280;17365;48.878;8.334;2023-10-19T09:05:01;98087.47;;;14.49;100.00
30598;BME280;17365;48.878;8.334;2023-10-19T09:07:31;98089.44;;;14.63;100.00
30598;BME280;17365;48.878;8.334;2023-10-19T09:09:56;98083.00;;;14.70;100.00
30598;BME280;17365;48.878;8.334;2023-10-19T09:12:22;98075.75;;;14.76;100.00
30598;BME280;17365;48.878;8.334;2023-10-19T09:14:47;98075.81;;;14.75;100.00
30598;BME280;17365;48.878;8.334;2023-10-19T09:17:14;98073.47;;;14.88;100.00
30598;BME280;17365;48.878;8.334;2023-10-19T09:19:40;98068.84;;;14.93;100.00
30598;BME280;17365;48.878;8.334;2023-10-19T09:22:07;98071.03;;;15.02;100.00
30598;BME280;17365;48.878;8.334;2023-10-19T09:24:51;98067.81;;;15.14;100.00
30598;BME280;17365;48.878;8.334;2023-10-19T09:27:18;98062.50;;;15.50;100.00
30598;BME280;17365;48.878;8.334;2023-10-19T09:29:43;98060.38;;;15.41;100.00
30598;BME280;17365;48.878;8.334;2023-10-19T09:32:08;98054.84;;;15.64;100.00
30598;BME280;17365;48.878;8.334;2023-10-19T09:34:34;98061.13;;;15.60;100.00
30598;BME280;17365;48.878;8.334;2023-10-19T09:36:59;98055.44;;;15.69;100.00
30598;BME280;17365;48.878;8.334;2023-10-19T09:39:28;98050.41;;;15.82;100.00
30598;BME280;17365;48.878;8.334;2023-10-19T09:42:05;98052.28;;;15.96;100.00
30598;BME280;17365;48.878;8.334;2023-10-19T09:44:34;98055.34;;;16.04;100.00
30598;BME280;17365;48.878;8.334;2023-10-19T09:47:03;98044.72;;;16.07;100.00
30598;BME280;17365;48.878;8.334;2023-10-19T09:49:29;98044.06;;;15.70;100.00
30598;BME280;17365;48.878;8.334;2023-10-19T09:51:54;98052.63;;;15.90;100.00
30598;BME280;17365;48.878;8.334;2023-10-19T09:54:21;98052.25;;;15.97;100.00
30598;BME280;17365;48.878;8.334;2023-10-19T09:56:50;98042.69;;;15.96;100.00
30598;BME280;17365;48.878;8.334;2023-10-19T09:59:26;98045.66;;;15.73;100.00
30598;BME280;17365;48.878;8.334;2023-10-19T10:02:10;98049.00;;;15.92;100.00
30598;BME280;17365;48.878;8.334;2023-10-19T10:04:39;98054.63;;;15.85;100.00
30598;BME280;17365;48.878;8.334;2023-10-19T10:07:10;98050.81;;;15.57;100.00
30598;BME280;17365;48.878;8.334;2023-10-19T10:09:44;98051.91;;;15.53;100.00
30598;BME280;17365;48.878;8.334;2023-10-19T10:12:22;98054.19;;;15.59;100.00
30598;BME280;17365;48.878;8.334;2023-10-19T10:17:19;98060.72;;;15.51;100.00
30598;BME280;17365;48.878;8.334;2023-10-19T10:19:44;98059.75;;;15.36;100.00
30598;BME280;17365;48.878;8.334;2023-10-19T10:22:10;98057.81;;;15.39;100.00
30598;BME280;17365;48.878;8.334;2023-10-19T10:24:46;98057.50;;;15.28;100.00
30598;BME280;17365;48.878;8.334;2023-10-19T10:27:11;98061.59;;;15.34;100.00
30598;BME280;17365;48.878;8.334;2023-10-19T10:29:53;98069.28;;;15.20;100.00
30598;BME280;17365;48.878;8.334;2023-10-19T10:32:42;98068.97;;;15.08;100.00
30598;BME280;17365;48.878;8.334;2023-10-19T10:35:04;98068.88;;;15.10;100.00
30598;BME280;17365;48.878;8.334;2023-10-19T10:37:37;98067.13;;;15.10;100.00
30598;BME280;17365;48.878;8.334;2023-10-19T10:40:03;98082.78;;;15.10;100.00
30598;BME280;17365;48.878;8.334;2023-10-19T10:42:30;98084.75;;;15.05;100.00
30598;BME280;17365;48.878;8.334;2023-10-19T10:44:56;98073.19;;;15.11;100.00
30598;BME280;17365;48.878;8.334;2023-10-19T10:47:22;98073.09;;;15.12;100.00
30598;BME280;17365;48.878;8.334;2023-10-19T10:52:24;98056.44;;;15.15;100.00
30598;BME280;17365;48.878;8.334;2023-10-19T10:54:50;98058.19;;;15.14;100.00
30598;BME280;17365;48.878;8.334;2023-10-19T10:57:15;98050.91;;;15.21;100.00
30598;BME280;17365;48.878;8.334;2023-10-19T10:59:41;98036.25;;;15.19;100.00
30598;BME280;17365;48.878;8.334;2023-10-19T11:02:16;98024.03;;;15.19;100.00
30598;BME280;17365;48.878;8.334;2023-10-19T11:04:45;98020.41;;;15.22;100.00
30598;BME280;17365;48.878;8.334;2023-10-19T11:07:17;98015.97;;;15.24;100.00
30598;BME280;17365;48.878;8.334;2023-10-19T11:09:46;98015.13;;;15.23;100.00
30598;BME280;17365;48.878;8.334;2023-10-19T11:12:11;97996.22;;;15.18;100.00
30598;BME280;17365;48.878;8.334;2023-10-19T11:14:38;98009.50;;;15.13;100.00
30598;BME280;17365;48.878;8.334;2023-10-19T11:17:12;97997.28;;;15.14;100.00
30598;BME280;17365;48.878;8.334;2023-10-19T11:19:40;97986.09;;;15.12;100.00
30598;BME280;17365;48.878;8.334;2023-10-19T11:22:09;97991.31;;;15.12;100.00
30598;BME280;17365;48.878;8.334;2023-10-19T11:24:34;97992.91;;;15.14;100.00
30598;BME280;17365;48.878;8.334;2023-10-19T11:27:04;97987.38;;;15.03;100.00
30598;BME280;17365;48.878;8.334;2023-10-19T11:29:30;97981.78;;;15.11;100.00
30598;BME280;17365;48.878;8.334;2023-10-19T11:31:58;97968.41;;;15.17;100.00
30598;BME280;17365;48.878;8.334;2023-10-19T11:34:24;97967.25;;;15.23;100.00
30598;BME280;17365;48.878;8.334;2023-10-19T11:36:53;97977.22;;;15.32;100.00
30598;BME280;17365;48.878;8.334;2023-10-19T11:39:21;97980.00;;;15.11;100.00
30598;BME280;17365;48.878;8.334;2023-10-19T11:41:48;97977.81;;;15.37;100.00
30598;BME280;17365;48.878;8.334;2023-10-19T11:44:13;97978.75;;;15.36;100.00
30598;BME280;17365;48.878;8.334;2023-10-19T11:46:38;97985.00;;;15.33;100.00
30598;BME280;17365;48.878;8.334;2023-10-19T11:49:04;97983.81;;;15.39;100.00
30598;BME280;17365;48.878;8.334;2023-10-19T11:51:29;97975.72;;;15.61;100.00
30598;BME280;17365;48.878;8.334;2023-10-19T11:53:56;97987.56;;;15.68;100.00
30598;BME280;17365;48.878;8.334;2023-10-19T11:56:21;97992.31;;;15.77;100.00
30598;BME280;17365;48.878;8.334;2023-10-19T11:58:46;97996.25;;;15.68;100.00
30598;BME280;17365;48.878;8.334;2023-10-19T12:01:12;97987.66;;;15.82;100.00
30598;BME280;17365;48.878;8.334;2023-10-19T12:03:37;97990.97;;;15.86;100.00
30598;BME280;17365;48.878;8.334;2023-10-19T12:06:04;97986.44;;;16.05;100.00
30598;BME280;17365;48.878;8.334;2023-10-19T12:08:31;97981.44;;;16.16;100.00
30598;BME280;17365;48.878;8.334;2023-10-19T12:10:56;97981.97;;;16.23;100.00
30598;BME280;17365;48.878;8.334;2023-10-19T12:13:22;97979.19;;;16.10;100.00
30598;BME280;17365;48.878;8.334;2023-10-19T12:15:47;97977.91;;;16.17;100.00
30598;BME280;17365;48.878;8.334;2023-10-19T12:18:20;97982.66;;;16.11;100.00
30598;BME280;17365;48.878;8.334;2023-10-19T12:20:45;97991.84;;;16.18;100.00
30598;BME280;17365;48.878;8.334;2023-10-19T12:23:11;97993.59;;;15.86;100.00
30598;BME280;17365;48.878;8.334;2023-10-19T12:25:36;97999.28;;;16.10;100.00
30598;BME280;17365;48.878;8.334;2023-10-19T12:28:03;97999.53;;;16.21;100.00
30598;BME280;17365;48.878;8.334;2023-10-19T12:30:29;97983.84;;;16.21;100.00
30598;BME280;17365;48.878;8.334;2023-10-19T12:32:59;97993.88;;;15.64;100.00
30598;BME280;17365;48.878;8.334;2023-10-19T12:35:25;97991.16;;;15.98;100.00
30598;BME280;17365;48.878;8.334;2023-10-19T12:38:01;97993.88;;;16.13;100.00
30598;BME280;17365;48.878;8.334;2023-10-19T12:40:32;98000.47;;;16.20;100.00
30598;BME280;17365;48.878;8.334;2023-10-19T12:43:00;97994.69;;;16.29;100.00
30598;BME280;17365;48.878;8.334;2023-10-19T12:45:28;97988.47;;;16.32;100.00
30598;BME280;17365;48.878;8.334;2023-10-19T12:47:53;97988.13;;;16.38;100.00
30598;BME280;17365;48.878;8.334;2023-10-19T12:50:19;97985.78;;;16.33;100.00
30598;BME280;17365;48.878;8.334;2023-10-19T12:52:51;97983.06;;;16.35;100.00
30598;BME280;17365;48.878;8.334;2023-10-19T12:55:17;97988.28;;;16.03;100.00
30598;BME280;17365;48.878;8.334;2023-10-19T12:57:42;97984.84;;;16.02;100.00